createdAt,value
2016-06-18T00:00:59.647Z,15.46
2016-06-18T00:01:59.684Z,15.39
2016-06-18T00:03:00.342Z,15.36
2016-06-18T00:03:59.143Z,15.37
2016-06-18T00:04:59.786Z,15.44
2016-06-18T00:05:59.212Z,15.31
2016-06-18T00:07:00.481Z,15.36
2016-06-18T00:08:00.501Z,15.24
2016-06-18T00:08:59.347Z,15.27
2016-06-18T00:09:59.367Z,15.22
2016-06-18T00:10:59.996Z,15.27
2016-06-18T00:12:00.061Z,15.25
2016-06-18T00:12:59.487Z,15.21
2016-06-18T00:14:00.725Z,15.1
2016-06-18T00:14:59.540Z,15.19
2016-06-18T00:15:59.590Z,15.19
2016-06-18T00:16:59.610Z,15.15
2016-06-18T00:18:00.253Z,15
2016-06-18T00:19:00.914Z,14.99
2016-06-18T00:20:00.338Z,15.09
2016-06-18T00:21:00.374Z,15.21
2016-06-18T00:21:59.800Z,15.14
2016-06-18T00:23:01.068Z,15.19
2016-06-18T00:24:01.103Z,15.1
2016-06-18T00:25:01.138Z,15.04
2016-06-18T00:26:00.578Z,15.06
2016-06-18T00:27:00.598Z,15.06
2016-06-18T00:28:01.226Z,15.09
2016-06-18T00:29:01.277Z,14.99
2016-06-18T00:30:00.092Z,15.04
2016-06-18T00:31:00.720Z,15.07
2016-06-18T00:32:00.772Z,15.04
2016-06-18T00:33:01.415Z,15.06
2016-06-18T00:34:01.450Z,14.88
2016-06-18T00:35:00.875Z,14.86
2016-06-18T00:36:00.957Z,14.92
2016-06-18T00:37:00.961Z,15.02
2016-06-18T00:38:00.401Z,15.04
2016-06-18T00:39:01.014Z,15.04
2016-06-18T00:40:01.674Z,15.09
2016-06-18T00:41:01.099Z,15.09
2016-06-18T00:42:01.744Z,15.07
2016-06-18T00:43:01.216Z,15
2016-06-18T00:44:01.813Z,15
2016-06-18T00:45:01.238Z,15.02
2016-06-18T00:46:00.678Z,15.04
2016-06-18T00:47:00.714Z,14.99
2016-06-18T00:48:01.357Z,15.06
2016-06-18T00:49:01.393Z,15.09
2016-06-18T00:50:02.036Z,15.04
2016-06-18T00:51:01.445Z,15.04
2016-06-18T00:52:02.091Z,15.11
2016-06-18T00:53:01.532Z,15.02
2016-06-18T00:54:00.988Z,15.09
2016-06-18T00:55:02.210Z,15.02
2016-06-18T00:56:01.042Z,14.97
2016-06-18T00:57:01.671Z,15.02
2016-06-18T00:58:01.705Z,15.07
2016-06-18T00:59:02.349Z,14.88
2016-06-18T01:00:01.790Z,14.92
2016-06-18T01:01:02.419Z,14.91
2016-06-18T01:02:01.234Z,14.91
2016-06-18T01:03:01.894Z,14.84
2016-06-18T01:04:01.929Z,14.84
2016-06-18T01:05:01.963Z,14.85
2016-06-18T01:06:01.389Z,14.88
2016-06-18T01:07:02.642Z,14.85
2016-06-18T01:08:02.084Z,14.84
2016-06-18T01:09:02.102Z,14.89
2016-06-18T01:10:02.136Z,14.99
2016-06-18T01:11:02.172Z,14.91
2016-06-18T01:12:02.207Z,14.86
2016-06-18T01:13:02.257Z,14.92
2016-06-18T01:14:02.292Z,14.85
2016-06-18T01:15:02.326Z,14.94
2016-06-18T01:16:02.361Z,14.94
2016-06-18T01:17:02.396Z,14.91
2016-06-18T01:18:02.430Z,14.96
2016-06-18T01:19:03.090Z,15.02
2016-06-18T01:20:03.109Z,14.94
2016-06-18T01:21:02.550Z,14.91
2016-06-18T01:22:03.178Z,14.91
2016-06-18T01:23:03.228Z,14.92
2016-06-18T01:24:02.046Z,14.92
2016-06-18T01:25:02.688Z,15.1
2016-06-18T01:26:02.724Z,15.04
2016-06-18T01:27:02.743Z,15.04
2016-06-18T01:28:02.793Z,15.02
2016-06-18T01:29:02.827Z,14.92
2016-06-18T01:30:02.863Z,14.92
2016-06-18T01:31:02.898Z,14.99
2016-06-18T01:32:03.542Z,14.94
2016-06-18T01:33:02.983Z,15
2016-06-18T01:34:03.627Z,14.88
2016-06-18T01:35:03.036Z,14.86
2016-06-18T01:36:03.086Z,14.86
2016-06-18T01:37:03.730Z,14.85
2016-06-18T01:38:03.156Z,14.92
2016-06-18T01:39:02.581Z,15
2016-06-18T01:40:02.616Z,14.91
2016-06-18T01:41:03.260Z,15.03
2016-06-18T01:42:03.295Z,14.94
2016-06-18T01:43:03.939Z,14.92
2016-06-18T01:44:03.364Z,14.91
2016-06-18T01:45:03.399Z,14.88
2016-06-18T01:46:02.841Z,15.04
2016-06-18T01:47:04.078Z,14.92
2016-06-18T01:48:03.518Z,14.89
2016-06-18T01:49:03.554Z,15
2016-06-18T01:50:04.198Z,15
2016-06-18T01:51:03.622Z,14.92
2016-06-18T01:52:04.267Z,14.88
2016-06-18T01:53:03.083Z,14.82
2016-06-18T01:54:03.746Z,14.79
2016-06-18T01:55:03.783Z,14.85
2016-06-18T01:56:03.804Z,14.72
2016-06-18T01:57:04.452Z,14.89
2016-06-18T01:58:03.897Z,14.89
2016-06-18T01:59:03.917Z,14.84
2016-06-18T02:00:03.359Z,14.79
2016-06-18T02:01:03.395Z,14.81
2016-06-18T02:02:04.634Z,14.78
2016-06-18T02:03:04.076Z,14.85
2016-06-18T02:04:03.502Z,14.86
2016-06-18T02:05:04.756Z,14.7
2016-06-18T02:06:04.197Z,14.73
2016-06-18T02:07:04.826Z,14.77
2016-06-18T02:08:04.268Z,14.85
2016-06-18T02:09:03.694Z,14.84
2016-06-18T02:10:04.337Z,14.86
2016-06-18T02:11:04.966Z,14.85
2016-06-18T02:12:05.017Z,14.77
2016-06-18T02:13:04.443Z,14.91
2016-06-18T02:14:04.477Z,14.69
2016-06-18T02:15:05.106Z,14.79
2016-06-18T02:16:04.562Z,14.84
2016-06-18T02:17:05.207Z,14.79
2016-06-18T02:18:04.632Z,14.91
2016-06-18T02:19:04.650Z,14.86
2016-06-18T02:20:04.686Z,14.79
2016-06-18T02:21:04.720Z,14.81
2016-06-18T02:22:04.161Z,14.89
2016-06-18T02:23:04.805Z,14.69
2016-06-18T02:24:04.231Z,14.84
2016-06-18T02:25:04.875Z,14.96
2016-06-18T02:26:04.910Z,14.94
2016-06-18T02:27:05.553Z,14.85
2016-06-18T02:28:04.978Z,14.92
2016-06-18T02:29:05.639Z,14.99
2016-06-18T02:30:05.049Z,14.96
2016-06-18T02:31:05.083Z,14.94
2016-06-18T02:32:05.118Z,14.92
2016-06-18T02:33:05.168Z,14.84
2016-06-18T02:34:04.577Z,14.88
2016-06-18T02:35:05.847Z,15
2016-06-18T02:36:05.273Z,15.02
2016-06-18T02:37:05.291Z,15.06
2016-06-18T02:38:05.326Z,15.03
2016-06-18T02:39:05.377Z,15.06
2016-06-18T02:40:06.021Z,15.14
2016-06-18T02:41:05.445Z,14.85
2016-06-18T02:42:05.480Z,14.96
2016-06-18T02:43:06.140Z,14.99
2016-06-18T02:44:05.550Z,15.03
2016-06-18T02:45:05.585Z,15
2016-06-18T02:46:05.025Z,14.99
2016-06-18T02:47:06.263Z,15.02
2016-06-18T02:48:05.705Z,15.09
2016-06-18T02:49:05.740Z,15.06
2016-06-18T02:50:05.773Z,14.99
2016-06-18T02:51:06.449Z,15.04
2016-06-18T02:52:05.844Z,14.99
2016-06-18T02:53:05.893Z,14.99
2016-06-18T02:54:05.303Z,15.07
2016-06-18T02:55:05.354Z,15.04
2016-06-18T02:56:05.982Z,15.06
2016-06-18T02:57:05.407Z,15.02
2016-06-18T02:58:06.661Z,15.04
2016-06-18T02:59:06.711Z,15.1
2016-06-18T03:00:06.746Z,15.17
2016-06-18T03:01:05.562Z,15.14
2016-06-18T03:02:06.206Z,15.07
2016-06-18T03:03:06.241Z,15.03
2016-06-18T03:04:06.885Z,14.97
2016-06-18T03:05:06.309Z,14.85
2016-06-18T03:06:06.954Z,14.88
2016-06-18T03:07:06.396Z,14.91
2016-06-18T03:08:06.414Z,14.96
2016-06-18T03:09:06.448Z,14.96
2016-06-18T03:10:05.890Z,15.02
2016-06-18T03:11:07.127Z,14.86
2016-06-18T03:12:07.178Z,14.79
2016-06-18T03:13:05.994Z,14.91
2016-06-18T03:14:06.028Z,14.86
2016-06-18T03:15:06.673Z,14.77
2016-06-18T03:16:06.708Z,14.82
2016-06-18T03:17:06.742Z,14.97
2016-06-18T03:18:07.402Z,15.04
2016-06-18T03:19:06.218Z,15
2016-06-18T03:20:07.455Z,14.91
2016-06-18T03:21:06.287Z,14.96
2016-06-18T03:22:06.963Z,15.04
2016-06-18T03:23:06.356Z,14.91
2016-06-18T03:24:07.000Z,14.94
2016-06-18T03:25:07.036Z,15.09
2016-06-18T03:26:07.070Z,15.04
2016-06-18T03:27:07.120Z,14.96
2016-06-18T03:28:07.139Z,14.88
2016-06-18T03:29:07.783Z,14.91
2016-06-18T03:30:06.600Z,14.88
2016-06-18T03:31:07.244Z,15.03
2016-06-18T03:32:07.277Z,15.07
2016-06-18T03:33:07.313Z,14.99
2016-06-18T03:34:07.364Z,15.1
2016-06-18T03:35:07.399Z,15
2016-06-18T03:36:08.041Z,15.04
2016-06-18T03:37:08.077Z,15.02
2016-06-18T03:38:06.893Z,14.97
2016-06-18T03:39:07.568Z,15.03
2016-06-18T03:40:08.181Z,15.03
2016-06-18T03:41:06.997Z,14.99
2016-06-18T03:42:07.031Z,15.02
2016-06-18T03:43:07.082Z,15.09
2016-06-18T03:44:07.727Z,15.14
2016-06-18T03:45:07.761Z,14.97
2016-06-18T03:46:07.186Z,15.04
2016-06-18T03:47:07.830Z,14.94
2016-06-18T03:48:07.865Z,14.91
2016-06-18T03:49:08.509Z,14.89
2016-06-18T03:50:07.950Z,14.92
2016-06-18T03:51:08.063Z,14.94
2016-06-18T03:52:08.019Z,15.07
2016-06-18T03:53:07.445Z,14.94
2016-06-18T03:54:08.089Z,14.94
2016-06-18T03:55:08.123Z,15.04
2016-06-18T03:56:07.549Z,15.04
2016-06-18T03:57:07.583Z,15.11
2016-06-18T03:58:08.243Z,15.03
2016-06-18T03:59:08.309Z,15.15
2016-06-18T04:00:08.907Z,15.09
2016-06-18T04:01:08.957Z,15.17
2016-06-18T04:02:08.382Z,15.25
2016-06-18T04:03:08.417Z,15.17
2016-06-18T04:04:09.061Z,15.15
2016-06-18T04:05:08.502Z,15.14
2016-06-18T04:06:09.114Z,15.11
2016-06-18T04:07:07.946Z,15.1
2016-06-18T04:08:09.216Z,15.04
2016-06-18T04:09:09.235Z,15.04
2016-06-18T04:10:08.052Z,15.1
2016-06-18T04:11:09.312Z,15.17
2016-06-18T04:12:08.135Z,15.19
2016-06-18T04:13:09.395Z,15.17
2016-06-18T04:14:08.840Z,15.15
2016-06-18T04:15:08.880Z,15.15
2016-06-18T04:16:08.918Z,15.15
2016-06-18T04:17:08.955Z,15.17
2016-06-18T04:18:08.991Z,15.18
2016-06-18T04:19:09.653Z,15.18
2016-06-18T04:20:08.471Z,15.14
2016-06-18T04:21:09.710Z,15.22
2016-06-18T04:22:09.135Z,15.18
2016-06-18T04:23:09.797Z,15.22
2016-06-18T04:24:09.207Z,15.25
2016-06-18T04:25:09.851Z,15.22
2016-06-18T04:26:09.886Z,15.22
2016-06-18T04:27:09.313Z,15.24
2016-06-18T04:28:08.754Z,15.28
2016-06-18T04:29:08.789Z,15.24
2016-06-18T04:30:09.418Z,15.21
2016-06-18T04:31:10.077Z,15.24
2016-06-18T04:32:09.502Z,15.21
2016-06-18T04:33:08.944Z,15.21
2016-06-18T04:34:09.587Z,15.19
2016-06-18T04:35:09.607Z,15.22
2016-06-18T04:36:10.252Z,15.21
2016-06-18T04:37:09.675Z,15.17
2016-06-18T04:38:10.336Z,15.17
2016-06-18T04:39:10.387Z,15.18
2016-06-18T04:40:09.186Z,15.25
2016-06-18T04:41:09.830Z,15.21
2016-06-18T04:42:09.881Z,15.21
2016-06-18T04:43:09.900Z,15.25
2016-06-18T04:44:09.935Z,15.25
2016-06-18T04:45:10.579Z,15.18
2016-06-18T04:46:10.004Z,15.25
2016-06-18T04:47:10.039Z,15.18
2016-06-18T04:48:10.699Z,15.17
2016-06-18T04:49:10.733Z,15.04
2016-06-18T04:50:09.550Z,15.06
2016-06-18T04:51:10.193Z,15.06
2016-06-18T04:52:10.838Z,15.11
2016-06-18T04:53:10.263Z,15.09
2016-06-18T04:54:10.906Z,15.14
2016-06-18T04:55:10.942Z,15.1
2016-06-18T04:56:10.398Z,15.19
2016-06-18T04:57:11.011Z,15.25
2016-06-18T04:58:10.467Z,15.28
2016-06-18T04:59:10.487Z,15.21
2016-06-18T05:00:11.115Z,15.19
2016-06-18T05:01:09.946Z,15.28
2016-06-18T05:02:10.591Z,15.36
2016-06-18T05:03:10.016Z,15.33
2016-06-18T05:04:10.691Z,15.31
2016-06-18T05:05:10.695Z,15.33
2016-06-18T05:06:10.745Z,15.29
2016-06-18T05:07:11.373Z,15.33
2016-06-18T05:08:10.799Z,15.36
2016-06-18T05:09:10.241Z,15.27
2016-06-18T05:10:11.477Z,15.25
2016-06-18T05:11:10.309Z,15.19
2016-06-18T05:12:10.954Z,15.29
2016-06-18T05:13:10.989Z,15.39
2016-06-18T05:14:10.413Z,15.36
2016-06-18T05:15:11.073Z,15.43
2016-06-18T05:16:11.107Z,15.42
2016-06-18T05:17:11.143Z,15.49
2016-06-18T05:18:11.162Z,15.43
2016-06-18T05:19:11.211Z,15.39
2016-06-18T05:20:11.231Z,15.35
2016-06-18T05:21:11.282Z,15.47
2016-06-18T05:22:10.706Z,15.52
2016-06-18T05:23:11.351Z,15.46
2016-06-18T05:24:11.386Z,15.46
2016-06-18T05:25:12.029Z,15.47
2016-06-18T05:26:10.861Z,15.47
2016-06-18T05:27:11.506Z,15.44
2016-06-18T05:28:11.524Z,15.42
2016-06-18T05:29:12.184Z,15.42
2016-06-18T05:30:12.266Z,15.43
2016-06-18T05:31:11.644Z,15.42
2016-06-18T05:32:11.070Z,15.4
2016-06-18T05:33:11.730Z,15.49
2016-06-18T05:34:11.763Z,15.42
2016-06-18T05:35:11.783Z,15.39
2016-06-18T05:36:11.224Z,15.36
2016-06-18T05:37:11.258Z,15.47
2016-06-18T05:38:11.293Z,15.46
2016-06-18T05:39:11.953Z,15.43
2016-06-18T05:40:12.582Z,15.43
2016-06-18T05:41:12.007Z,15.4
2016-06-18T05:42:12.651Z,15.54
2016-06-18T05:43:12.092Z,15.51
2016-06-18T05:44:12.126Z,15.42
2016-06-18T05:45:12.755Z,15.57
2016-06-18T05:46:12.196Z,15.55
2016-06-18T05:47:12.231Z,15.57
2016-06-18T05:48:12.265Z,15.57
2016-06-18T05:49:12.300Z,15.54
2016-06-18T05:50:11.741Z,15.51
2016-06-18T05:51:12.386Z,15.44
2016-06-18T05:52:12.420Z,15.52
2016-06-18T05:53:11.845Z,15.51
2016-06-18T05:54:12.489Z,15.4
2016-06-18T05:55:11.914Z,15.46
2016-06-18T05:56:13.168Z,15.46
2016-06-18T05:57:13.203Z,15.43
2016-06-18T05:58:12.644Z,15.44
2016-06-18T05:59:12.053Z,15.46
2016-06-18T06:00:13.323Z,15.46
2016-06-18T06:01:12.748Z,15.46
2016-06-18T06:02:12.783Z,15.55
2016-06-18T06:03:13.427Z,15.54
2016-06-18T06:04:12.851Z,15.43
2016-06-18T06:05:12.887Z,15.54
2016-06-18T06:06:12.938Z,15.61
2016-06-18T06:07:12.972Z,15.64
2016-06-18T06:08:12.397Z,15.58
2016-06-18T06:09:13.041Z,15.52
2016-06-18T06:10:13.060Z,15.55
2016-06-18T06:11:12.501Z,15.57
2016-06-18T06:12:12.551Z,15.55
2016-06-18T06:13:12.570Z,15.61
2016-06-18T06:14:12.621Z,15.59
2016-06-18T06:15:12.639Z,15.59
2016-06-18T06:16:13.300Z,15.61
2016-06-18T06:17:13.929Z,15.68
2016-06-18T06:18:13.385Z,15.7
2016-06-18T06:19:13.388Z,15.7
2016-06-18T06:20:14.048Z,15.68
2016-06-18T06:21:13.473Z,15.94
2016-06-18T06:22:14.117Z,15.9
2016-06-18T06:23:14.152Z,15.94
2016-06-18T06:24:13.592Z,15.88
2016-06-18T06:25:14.222Z,15.95
2016-06-18T06:26:13.038Z,15.98
2016-06-18T06:27:13.698Z,16
2016-06-18T06:28:14.344Z,15.97
2016-06-18T06:29:13.769Z,15.98
2016-06-18T06:30:13.805Z,15.98
2016-06-18T06:31:13.856Z,16
2016-06-18T06:32:14.485Z,16
2016-06-18T06:33:13.317Z,16.08
2016-06-18T06:34:13.351Z,16.23
2016-06-18T06:35:13.402Z,16.21
2016-06-18T06:36:14.031Z,16.29
2016-06-18T06:37:14.081Z,16.29
2016-06-18T06:38:14.115Z,16.21
2016-06-18T06:39:14.150Z,16.05
2016-06-18T06:40:14.795Z,16.02
2016-06-18T06:41:14.221Z,16.04
2016-06-18T06:42:14.254Z,16.13
2016-06-18T06:43:14.539Z,16.12
2016-06-18T06:44:14.933Z,16.12
2016-06-18T06:45:13.765Z,15.97
2016-06-18T06:46:15.003Z,16.08
2016-06-18T06:47:15.053Z,15.92
2016-06-18T06:48:15.088Z,16.02
2016-06-18T06:49:13.904Z,16.17
2016-06-18T06:50:14.549Z,16.28
2016-06-18T06:51:14.599Z,16.31
2016-06-18T06:52:14.618Z,16.21
2016-06-18T06:53:15.276Z,16.28
2016-06-18T06:54:14.093Z,16.38
2016-06-18T06:55:14.753Z,16.33
2016-06-18T06:56:15.381Z,16.43
2016-06-18T06:57:14.807Z,16.42
2016-06-18T06:58:14.248Z,16.5
2016-06-18T06:59:14.282Z,16.39
2016-06-18T07:00:14.317Z,16.43
2016-06-18T07:01:14.962Z,16.58
2016-06-18T07:02:14.996Z,16.58
2016-06-18T07:03:15.656Z,16.6
2016-06-18T07:04:15.689Z,16.53
2016-06-18T07:05:15.115Z,16.58
2016-06-18T07:06:14.557Z,16.66
2016-06-18T07:07:15.185Z,16.78
2016-06-18T07:08:14.626Z,16.72
2016-06-18T07:09:15.879Z,16.66
2016-06-18T07:10:15.304Z,16.83
2016-06-18T07:11:15.949Z,17.05
2016-06-18T07:12:15.406Z,17.14
2016-06-18T07:13:15.425Z,17.26
2016-06-18T07:14:15.460Z,17.26
2016-06-18T07:15:14.884Z,17.2
2016-06-18T07:16:15.528Z,17.34
2016-06-18T07:17:15.563Z,17.22
2016-06-18T07:18:15.004Z,17.3
2016-06-18T07:19:16.258Z,17.42
2016-06-18T07:20:15.684Z,17.54
2016-06-18T07:21:15.717Z,17.65
2016-06-18T07:22:15.159Z,17.72
2016-06-18T07:23:16.412Z,17.92
2016-06-18T07:24:16.447Z,17.97
2016-06-18T07:25:16.497Z,18.01
2016-06-18T07:26:16.516Z,18.07
2016-06-18T07:27:15.958Z,18.26
2016-06-18T07:28:16.601Z,18.31
2016-06-18T07:29:16.042Z,18.49
2016-06-18T07:30:15.483Z,18.6
2016-06-18T07:31:16.096Z,18.63
2016-06-18T07:32:16.772Z,18.66
2016-06-18T07:33:15.587Z,18.92
2016-06-18T07:34:16.232Z,18.99
2016-06-18T07:35:15.657Z,19.34
2016-06-18T07:36:15.723Z,19.49
2016-06-18T07:37:16.351Z,19.84
2016-06-18T07:38:16.386Z,19.56
2016-06-18T07:39:16.436Z,19.27
2016-06-18T07:40:16.471Z,19.37
2016-06-18T07:41:15.897Z,19.49
2016-06-18T07:42:16.540Z,19.73
2016-06-18T07:43:17.199Z,19.59
2016-06-18T07:44:16.016Z,19.84
2016-06-18T07:45:17.269Z,19.66
2016-06-18T07:46:16.695Z,19.31
2016-06-18T07:47:16.761Z,19.02
2016-06-18T07:48:17.436Z,19.09
2016-06-18T07:49:16.830Z,18.73
2016-06-18T07:50:17.490Z,18.62
2016-06-18T07:51:17.525Z,18.5
2016-06-18T07:52:16.340Z,18.23
2016-06-18T07:53:17.000Z,18.11
2016-06-18T07:54:16.425Z,18.11
2016-06-18T07:55:17.085Z,18.04
2016-06-18T07:56:17.729Z,17.89
2016-06-18T07:57:16.561Z,17.8
2016-06-18T07:58:16.612Z,17.54
2016-06-18T07:59:17.255Z,17.45
2016-06-18T08:00:17.274Z,17.41
2016-06-18T08:01:17.919Z,17.36
2016-06-18T08:02:17.359Z,17.33
2016-06-18T08:03:17.379Z,17.31
2016-06-18T08:04:16.819Z,17.24
2016-06-18T08:05:16.870Z,17.3
2016-06-18T08:06:17.514Z,17.33
2016-06-18T08:07:17.548Z,17.33
2016-06-18T08:08:17.583Z,17.3
2016-06-18T08:09:18.243Z,17.26
2016-06-18T08:10:17.668Z,17.38
2016-06-18T08:11:17.703Z,17.36
2016-06-18T08:12:17.144Z,17.41
2016-06-18T08:13:17.789Z,17.38
2016-06-18T08:14:17.822Z,17.2
2016-06-18T08:15:17.858Z,17.29
2016-06-18T08:16:17.923Z,17.31
2016-06-18T08:17:17.942Z,17.3
2016-06-18T08:18:17.383Z,17.29
2016-06-18T08:19:18.669Z,17.11
2016-06-18T08:20:17.453Z,17.31
2016-06-18T08:21:18.097Z,17.12
2016-06-18T08:22:18.116Z,17.16
2016-06-18T08:23:18.182Z,17.06
2016-06-18T08:24:17.607Z,17.15
2016-06-18T08:25:18.252Z,17.2
2016-06-18T08:26:17.693Z,17.26
2016-06-18T08:27:18.321Z,17.24
2016-06-18T08:28:18.371Z,17.3
2016-06-18T08:29:17.796Z,17.27
2016-06-18T08:30:18.441Z,17.22
2016-06-18T08:31:18.491Z,17.12
2016-06-18T08:32:18.510Z,17.22
2016-06-18T08:33:18.561Z,17.42
2016-06-18T08:34:18.611Z,17.59
2016-06-18T08:35:18.629Z,17.51
2016-06-18T08:36:18.071Z,17.74
2016-06-18T08:37:18.715Z,17.87
2016-06-18T08:38:19.359Z,17.94
2016-06-18T08:39:19.409Z,18.26
2016-06-18T08:40:18.226Z,18.58
2016-06-18T08:41:18.869Z,18.65
2016-06-18T08:42:18.903Z,19.07
2016-06-18T08:43:18.941Z,19.58
2016-06-18T08:47:09.547Z,19.52
2016-06-18T08:47:20.156Z,19.56
2016-06-18T08:47:36.703Z,18.65
2016-06-18T08:48:37.991Z,18.74
2016-06-18T08:49:37.404Z,18.77
2016-06-18T08:50:37.455Z,18.8
2016-06-18T08:51:36.882Z,18.62
2016-06-18T08:52:37.544Z,18.63
2016-06-18T08:53:38.174Z,18.68
2016-06-18T08:54:37.036Z,18.86
2016-06-18T08:55:37.666Z,18.96
2016-06-18T08:56:37.700Z,19.02
2016-06-18T08:57:37.735Z,19.02
2016-06-18T08:58:37.786Z,19.14
2016-06-18T08:59:38.431Z,19
2016-06-18T09:00:37.856Z,19.51
2016-06-18T09:01:37.908Z,20.13
2016-06-18T09:02:38.552Z,20.82
2016-06-18T09:03:37.992Z,21.32
2016-06-18T09:04:38.027Z,21.57
2016-06-18T09:05:38.062Z,21.76
2016-06-18T09:06:38.097Z,21.92
2016-06-18T09:07:38.162Z,21.76
2016-06-18T09:08:38.838Z,21.66
2016-06-18T09:09:38.858Z,21.35
2016-06-18T09:10:37.673Z,21.25
2016-06-18T09:11:38.317Z,20.6
2016-06-18T09:12:37.774Z,20.25
2016-06-18T09:13:38.418Z,20.24
2016-06-18T09:14:39.046Z,20
2016-06-18T09:15:38.487Z,19.59
2016-06-18T09:16:38.538Z,19.62
2016-06-18T09:17:39.198Z,19.44
2016-06-18T09:20:12.988Z,19.02
2016-06-18T09:21:13.085Z,18.88
2016-06-18T09:22:13.697Z,18.83
2016-06-18T09:23:14.342Z,18.7
2016-06-18T09:24:13.783Z,18.89
2016-06-18T09:25:13.802Z,18.9
2016-06-18T09:26:13.883Z,19.07
2016-06-18T09:27:13.902Z,18.84
2016-06-18T09:28:14.594Z,18.71
2016-06-18T09:29:14.613Z,18.63
2016-06-18T09:31:14.651Z,18.6
2016-06-18T09:32:14.077Z,18.53
2016-06-18T09:33:14.095Z,18.5
2016-06-18T09:34:14.145Z,18.13
2016-06-18T09:35:14.790Z,18.13
2016-06-18T09:36:14.840Z,18.1
2016-06-18T09:37:14.280Z,18.23
2016-06-18T09:38:14.284Z,18.18
2016-06-18T09:39:14.960Z,18.04
2016-06-18T09:40:14.713Z,18.03
2016-06-18T09:41:14.420Z,18.15
2016-06-18T09:42:14.470Z,18.22
2016-06-18T09:43:15.115Z,17.98
2016-06-18T09:44:14.539Z,17.72
2016-06-18T09:45:14.590Z,17.78
2016-06-18T09:46:15.234Z,17.71
2016-06-18T09:47:14.753Z,17.63
2016-06-18T09:48:14.709Z,17.8
2016-06-18T09:49:14.744Z,17.92
2016-06-18T09:50:15.388Z,17.95
2016-06-18T09:51:14.814Z,17.97
2016-06-18T09:52:15.490Z,17.95
2016-06-18T09:53:14.899Z,18.01
2016-06-18T09:54:14.933Z,18
2016-06-18T09:55:14.359Z,18.05
2016-06-18T09:56:14.409Z,18.15
2016-06-18T09:57:14.444Z,18.25
2016-06-18T09:58:15.088Z,18.22
2016-06-18T09:59:15.731Z,18.35
2016-06-18T10:00:15.782Z,18.45
2016-06-18T10:01:15.816Z,18.65
2016-06-18T10:02:15.867Z,18.53
2016-06-18T10:03:15.902Z,18.62
2016-06-18T10:04:15.937Z,18.53
2016-06-18T10:05:15.971Z,18.34
2016-06-18T10:06:15.413Z,18.38
2016-06-18T10:07:15.447Z,18.38
2016-06-18T10:08:14.873Z,18.44
2016-06-18T10:09:15.517Z,18.41
2016-06-18T10:10:15.567Z,18.37
2016-06-18T10:11:15.601Z,18.45
2016-06-18T10:12:16.262Z,18.49
2016-06-18T10:13:15.890Z,18.38
2016-06-18T10:14:16.346Z,18.2
2016-06-18T10:15:15.161Z,18.18
2016-06-18T10:16:15.806Z,18.04
2016-06-18T10:17:16.451Z,17.87
2016-06-18T10:18:16.485Z,17.78
2016-06-18T10:19:16.551Z,17.68
2016-06-18T10:20:15.352Z,17.8
2016-06-18T10:21:16.152Z,17.71
2016-06-18T10:22:16.655Z,17.59
2016-06-18T10:23:16.081Z,17.59
2016-06-18T10:24:16.709Z,17.42
2016-06-18T10:25:16.790Z,17.41
2016-06-18T10:26:16.809Z,17.41
2016-06-18T10:27:16.219Z,17.29
2016-06-18T10:28:16.878Z,17.16
2016-06-18T10:29:16.304Z,17.11
2016-06-18T10:30:16.339Z,17.04
2016-06-18T10:31:16.999Z,17.08
2016-06-18T10:32:16.408Z,16.96
2016-06-18T10:33:16.459Z,16.97
2016-06-18T10:34:17.118Z,17.01
2016-06-18T10:35:15.935Z,16.97
2016-06-18T10:36:17.188Z,16.94
2016-06-18T10:37:16.628Z,17.01
2016-06-18T10:38:16.648Z,16.94
2016-06-18T10:39:16.683Z,16.91
2016-06-18T10:40:16.749Z,16.96
2016-06-18T10:41:16.767Z,16.89
2016-06-18T10:42:16.193Z,17.01
2016-06-18T10:43:17.446Z,16.99
2016-06-18T10:44:16.887Z,17.01
2016-06-18T10:45:16.923Z,17.08
2016-06-18T10:46:16.957Z,17.16
2016-06-18T10:47:16.991Z,17.27
2016-06-18T10:48:17.041Z,17.27
2016-06-18T10:49:17.686Z,17.34
2016-06-18T10:50:17.112Z,17.33
2016-06-18T10:51:17.146Z,17.39
2016-06-18T10:52:17.791Z,17.39
2016-06-18T10:53:17.215Z,17.6
2016-06-18T10:54:16.688Z,17.59
2016-06-18T10:55:17.285Z,17.63
2016-06-18T10:56:17.335Z,17.52
2016-06-18T10:57:16.776Z,17.63
2016-06-18T10:58:17.420Z,17.74
2016-06-18T10:59:18.049Z,17.92
2016-06-18T11:00:18.115Z,17.9
2016-06-18T11:01:18.150Z,17.83
2016-06-18T11:02:17.590Z,17.71
2016-06-18T11:03:17.610Z,17.92
2016-06-18T11:04:18.269Z,17.9
2016-06-18T11:05:17.679Z,18
2016-06-18T11:06:17.714Z,18.11
2016-06-18T11:07:17.764Z,18.35
2016-06-18T11:08:17.783Z,18.62
2016-06-18T11:09:17.834Z,18.6
2016-06-18T11:10:17.868Z,18.63
2016-06-18T11:11:18.543Z,18.84
2016-06-18T11:12:18.547Z,18.95
2016-06-18T11:13:18.597Z,19.19
2016-06-18T11:14:18.647Z,19.41
2016-06-18T11:15:18.682Z,19.45
2016-06-18T11:16:18.107Z,19.4
2016-06-18T11:17:18.142Z,19.55
2016-06-18T11:18:17.584Z,19.37
2016-06-18T11:19:17.618Z,18.99
2016-06-18T11:20:18.277Z,18.83
2016-06-18T11:21:17.703Z,18.84
2016-06-18T11:22:18.957Z,18.74
2016-06-18T11:23:18.397Z,18.6
2016-06-18T11:24:19.042Z,18.49
2016-06-18T11:25:17.871Z,18.52
2016-06-18T11:26:17.922Z,18.5
2016-06-18T11:27:17.941Z,18.55
2016-06-18T11:28:18.584Z,18.9
2016-06-18T11:29:18.026Z,19.29
2016-06-18T11:30:19.279Z,19.27
2016-06-18T11:31:19.314Z,19.51
2016-06-18T11:32:18.755Z,19.37
2016-06-18T11:33:18.790Z,19.31
2016-06-18T11:34:18.824Z,19.31
2016-06-18T11:41:21.276Z,19.27
2016-06-18T11:42:21.310Z,19.18
2016-06-18T11:43:20.736Z,19.26
2016-06-18T11:44:20.787Z,18.98
2016-06-18T11:45:21.431Z,18.96
2016-06-18T11:46:20.887Z,18.95
2016-06-18T11:47:20.298Z,18.88
2016-06-18T11:48:20.941Z,18.88
2016-06-18T11:49:37.664Z,18.88
2016-06-18T11:50:21.667Z,18.89
2016-06-18T11:51:20.467Z,18.89
2016-06-18T11:52:21.112Z,19.24
2016-06-18T11:53:20.537Z,19.4
2016-06-18T11:54:20.572Z,19.63
2016-06-18T11:55:21.231Z,19.62
2016-06-18T11:56:21.298Z,19.74
2016-06-18T11:57:21.317Z,19.77
2016-06-18T11:58:21.977Z,19.7
2016-06-18T11:59:21.997Z,19.59
2016-06-18T12:00:22.048Z,19.67
2016-06-18T12:01:22.085Z,19.52
2016-06-18T12:02:21.526Z,19.26
2016-06-18T12:03:21.561Z,19.24
2016-06-18T12:04:21.598Z,19.19
2016-06-18T12:05:21.647Z,19.18
2016-06-18T12:06:21.698Z,19.09
2016-06-18T12:07:22.343Z,19.02
2016-06-18T12:08:22.378Z,19.09
2016-06-18T12:09:21.819Z,19.07
2016-06-18T12:10:21.870Z,19.16
2016-06-18T12:11:21.888Z,19
2016-06-18T12:12:21.361Z,18.84
2016-06-18T12:13:21.364Z,18.86
2016-06-18T12:14:22.008Z,18.81
2016-06-18T12:15:21.465Z,18.83
2016-06-18T12:16:22.094Z,18.8
2016-06-18T12:17:22.737Z,18.78
2016-06-18T12:18:22.180Z,18.68
2016-06-18T12:19:22.214Z,18.66
2016-06-18T12:20:22.265Z,18.74
2016-06-18T12:21:22.300Z,18.66
2016-06-18T12:22:22.944Z,18.62
2016-06-18T12:23:22.994Z,18.5
2016-06-18T12:24:21.810Z,18.49
2016-06-18T12:25:22.455Z,18.4
2016-06-18T12:26:21.895Z,18.44
2016-06-18T12:27:21.930Z,18.38
2016-06-18T12:28:23.199Z,18.35
2016-06-18T12:29:23.219Z,18.52
2016-06-18T12:30:22.081Z,18.4
2016-06-18T12:31:22.694Z,18.52
2016-06-18T12:32:22.743Z,18.52
2016-06-18T12:33:23.404Z,18.7
2016-06-18T12:34:23.422Z,18.88
2016-06-18T12:35:23.473Z,20
2016-06-18T12:36:22.899Z,20.96
2016-06-18T12:37:22.324Z,21.15
2016-06-18T12:38:22.984Z,21.61
2016-06-18T12:39:23.018Z,22.6
2016-06-18T12:40:22.460Z,23.68
2016-06-18T12:41:23.119Z,23.32
2016-06-18T12:42:23.747Z,23.99
2016-06-18T12:43:22.595Z,23.78
2016-06-18T12:44:23.849Z,23.8
2016-06-18T12:45:23.305Z,24.33
2016-06-18T12:46:23.324Z,24.45
2016-06-18T12:47:24.000Z,25.21
2016-06-18T12:48:24.049Z,25.31
2016-06-18T12:49:23.460Z,25.38
2016-06-18T12:50:24.150Z,25.35
2016-06-18T12:51:23.576Z,25.68
2016-06-18T12:52:23.611Z,26.09
2016-06-18T12:53:23.647Z,26.13
2016-06-18T12:54:23.712Z,25.8
2016-06-18T12:55:24.357Z,25.43
2016-06-18T12:56:23.814Z,25.14
2016-06-18T12:57:23.849Z,24.96
2016-06-18T12:58:23.915Z,24.51
2016-06-18T12:59:23.949Z,24.42
2016-06-18T13:00:24.015Z,24.23
2016-06-18T13:01:24.675Z,24.14
2016-06-18T13:02:24.147Z,24.24
2016-06-18T13:03:24.775Z,24.21
2016-06-18T13:04:23.606Z,24.39
2016-06-18T13:05:23.657Z,24.6
2016-06-18T13:06:24.301Z,24.76
2016-06-18T13:07:24.977Z,24.57